Time;durP1;ratioP1;P1;durP2;ratioP2;P2;SDS_P1;SDS_P2;PMS_P1;PMS_P2;Temp;Humidity;BMP_temperature;BMP_pressure;BME280_temperature;BME280_humidity;BME280_pressure;Samples;Min_cycle;Max_cycle;Signal;HPM_P1;HPM_P2
2023/05/22 00:00:53;;;;;;;30.52;25.30;;;;;;;;;;5052242;28;20045;-75
2023/05/22 00:03:19;;;;;;;31.80;27.10;;;;;;;;;;5031755;28;20087;-75
2023/05/22 00:05:47;;;;;;;30.77;26.40;;;;;;;;;;5053807;28;20044;-74
2023/05/22 00:08:13;;;;;;;30.45;27.15;;;;;;;;;;5046629;28;20059;-74
2023/05/22 00:10:39;;;;;;;36.45;27.25;;;;;;;;;;5049053;28;20052;-75
2023/05/22 00:13:05;;;;;;;32.92;25.95;;;;;;;;;;5049056;28;20040;-74
2023/05/22 00:15:31;;;;;;;30.27;25.73;;;;;;;;;;5050195;28;20058;-75
2023/05/22 00:17:57;;;;;;;30.92;26.88;;;;;;;;;;5053326;28;20052;-75
2023/05/22 00:20:25;;;;;;;31.35;26.15;;;;;;;;;;5052047;28;20037;-75
2023/05/22 00:22:51;;;;;;;32.17;26.33;;;;;;;;;;5051945;28;20516;-75
2023/05/22 00:25:18;;;;;;;32.90;26.52;;;;;;;;;;5034503;28;20414;-74
2023/05/22 00:27:45;;;;;;;32.17;26.93;;;;;;;;;;5035020;28;20098;-74
2023/05/22 00:30:11;;;;;;;35.10;27.08;;;;;;;;;;5051490;28;20836;-74
2023/05/22 00:32:37;;;;;;;33.63;27.05;;;;;;;;;;5052018;28;20504;-75
2023/05/22 00:35:03;;;;;;;33.08;27.25;;;;;;;;;;5063439;28;20048;-74
2023/05/22 00:37:29;;;;;;;35.03;27.13;;;;;;;;;;5053403;28;20048;-74
2023/05/22 00:39:55;;;;;;;32.95;25.73;;;;;;;;;;5054102;28;20099;-74
2023/05/22 00:42:22;;;;;;;34.60;27.73;;;;;;;;;;5054980;28;20055;-75
2023/05/22 00:44:48;;;;;;;30.77;26.88;;;;;;;;;;5065803;28;20475;-75
2023/05/22 00:47:14;;;;;;;35.50;28.77;;;;;;;;;;5036014;28;20040;-75
2023/05/22 00:49:41;;;;;;;41.20;29.75;;;;;;;;;;5059130;28;20044;-74
2023/05/22 00:52:07;;;;;;;35.30;27.38;;;;;;;;;;5036630;28;20068;-75
2023/05/22 00:54:34;;;;;;;34.63;28.42;;;;;;;;;;5055699;28;20047;-75
2023/05/22 00:57:01;;;;;;;36.55;29.38;;;;;;;;;;5069899;28;20048;-74
2023/05/22 00:59:28;;;;;;;34.58;27.42;;;;;;;;;;5037912;28;20044;-75
2023/05/22 01:01:54;;;;;;;37.65;28.80;;;;;;;;;;5052375;28;20663;-75
2023/05/22 01:04:21;;;;;;;34.72;29.00;;;;;;;;;;5051639;28;20656;-75
2023/05/22 01:06:47;;;;;;;40.50;28.48;;;;;;;;;;5043459;28;20582;-75
2023/05/22 01:09:13;;;;;;;37.85;28.40;;;;;;;;;;5036417;28;20051;-75
2023/05/22 01:11:42;;;;;;;35.15;27.70;;;;;;;;;;5086234;28;20052;-76
2023/05/22 01:14:09;;;;;;;42.85;29.67;;;;;;;;;;5057155;28;20041;-75
2023/05/22 01:17:01;;;;;;;34.55;28.05;;;;;;;;;;5056670;28;20711;-76
2023/05/22 01:19:30;;;;;;;34.05;28.98;;;;;;;;;;5047339;28;20074;-75
2023/05/22 01:22:07;;;;;;;37.60;27.90;;;;;;;;;;5052793;28;20052;-76
2023/05/22 01:24:43;;;;;;;36.63;28.38;;;;;;;;;;5040032;28;20501;-74
2023/05/22 01:27:27;;;;;;;36.58;28.23;;;;;;;;;;5055297;28;20109;-74
2023/05/22 01:30:11;;;;;;;40.85;28.83;;;;;;;;;;5054489;28;20044;-74
2023/05/22 01:32:38;;;;;;;31.33;26.45;;;;;;;;;;5057355;28;20641;-75
2023/05/22 01:35:07;;;;;;;41.22;30.98;;;;;;;;;;5057080;28;20499;-74
2023/05/22 01:37:34;;;;;;;40.47;30.23;;;;;;;;;;5055590;28;20072;-74
2023/05/22 01:40:00;;;;;;;32.97;28.40;;;;;;;;;;5060886;28;20044;-75
2023/05/22 01:42:27;;;;;;;38.50;30.88;;;;;;;;;;5056492;28;20432;-75
2023/05/22 01:44:53;;;;;;;33.40;29.27;;;;;;;;;;5042726;28;20110;-75
2023/05/22 01:47:19;;;;;;;33.88;28.70;;;;;;;;;;5052513;28;20045;-75
2023/05/22 01:49:46;;;;;;;40.05;31.08;;;;;;;;;;5061051;28;20047;-75
2023/05/22 01:52:44;;;;;;;35.35;28.38;;;;;;;;;;5052788;28;20045;-75
2023/05/22 01:55:16;;;;;;;37.67;30.35;;;;;;;;;;5016638;28;20147;-75
2023/05/22 01:57:56;;;;;;;36.25;29.98;;;;;;;;;;5031474;28;20033;-75
2023/05/22 02:00:25;;;;;;;41.30;30.38;;;;;;;;;;5057557;28;20713;-76
2023/05/22 02:02:51;;;;;;;;;;;;;;;;;;5058997;28;20553;-74
2023/05/22 02:05:17;;;;;;;39.45;29.55;;;;;;;;;;5059715;28;20039;-74
2023/05/22 02:07:45;;;;;;;39.40;30.90;;;;;;;;;;5055080;28;20538;-74
2023/05/22 02:10:11;;;;;;;39.03;30.90;;;;;;;;;;5054621;28;20109;-75
2023/05/22 02:12:37;;;;;;;38.67;30.83;;;;;;;;;;5059027;28;21175;-76
2023/05/22 02:15:04;;;;;;;37.50;30.73;;;;;;;;;;5054856;28;20048;-74
2023/05/22 02:17:30;;;;;;;34.95;28.90;;;;;;;;;;5038182;28;20490;-75
2023/05/22 02:19:56;;;;;;;38.65;30.35;;;;;;;;;;5038780;28;20044;-75
2023/05/22 02:22:22;;;;;;;36.00;29.88;;;;;;;;;;5054410;28;20157;-75
2023/05/22 02:24:49;;;;;;;38.53;30.45;;;;;;;;;;5057928;28;20043;-75
2023/05/22 02:27:16;;;;;;;36.88;29.38;;;;;;;;;;5055290;28;20197;-74
2023/05/22 02:29:42;;;;;;;36.28;29.52;;;;;;;;;;5054977;28;20052;-74
2023/05/22 02:32:08;;;;;;;37.30;29.65;;;;;;;;;;5055799;28;20423;-74
2023/05/22 02:34:34;;;;;;;35.08;29.17;;;;;;;;;;5056592;28;20048;-75
2023/05/22 02:37:03;;;;;;;35.85;29.35;;;;;;;;;;5043277;28;20051;-74
2023/05/22 02:39:29;;;;;;;37.40;30.60;;;;;;;;;;5059609;28;20041;-74
2023/05/22 02:41:55;;;;;;;40.42;29.38;;;;;;;;;;5038917;28;20044;-75
2023/05/22 02:44:21;;;;;;;34.90;29.42;;;;;;;;;;5058331;28;20612;-75
2023/05/22 02:46:47;;;;;;;34.45;29.50;;;;;;;;;;5056997;28;20044;-76
2023/05/22 02:49:14;;;;;;;36.75;30.65;;;;;;;;;;5053511;28;20048;-75
2023/05/22 02:51:39;;;;;;;38.40;30.40;;;;;;;;;;5054339;28;20032;-75
2023/05/22 02:54:05;;;;;;;36.83;29.35;;;;;;;;;;5051183;28;20106;-74
2023/05/22 02:56:31;;;;;;;38.17;31.13;;;;;;;;;;5056217;28;20908;-75
2023/05/22 02:58:57;;;;;;;41.00;30.38;;;;;;;;;;5054494;28;20063;-74
2023/05/22 03:01:25;;;;;;;34.17;29.38;;;;;;;;;;5052539;28;20472;-74
2023/05/22 03:03:51;;;;;;;36.85;31.10;;;;;;;;;;5057389;28;20129;-75
2023/05/22 03:06:17;;;;;;;41.05;31.02;;;;;;;;;;5051988;28;20044;-75
2023/05/22 03:08:43;;;;;;;40.75;31.17;;;;;;;;;;5039113;28;20060;-75
2023/05/22 03:11:10;;;;;;;35.83;30.70;;;;;;;;;;5054765;28;20052;-74
2023/05/22 03:13:36;;;;;;;38.63;32.10;;;;;;;;;;5054620;28;20040;-73
2023/05/22 03:16:02;;;;;;;35.88;30.33;;;;;;;;;;5050908;28;20045;-74
2023/05/22 03:18:28;;;;;;;37.00;31.52;;;;;;;;;;5037983;28;20044;-74
2023/05/22 03:20:54;;;;;;;39.83;32.00;;;;;;;;;;5034802;28;20679;-74
2023/05/22 03:23:20;;;;;;;39.53;32.58;;;;;;;;;;5058362;28;20059;-74
2023/05/22 03:25:46;;;;;;;38.88;31.77;;;;;;;;;;5054826;28;20565;-73
2023/05/22 03:28:13;;;;;;;37.80;32.03;;;;;;;;;;5054891;28;20041;-74
2023/05/22 03:30:39;;;;;;;42.33;32.95;;;;;;;;;;5054552;28;20737;-74
2023/05/22 03:33:05;;;;;;;39.38;30.88;;;;;;;;;;5036172;28;20052;-73
2023/05/22 03:35:31;;;;;;;38.92;30.73;;;;;;;;;;5037030;28;20051;-74
2023/05/22 03:37:57;;;;;;;39.53;32.38;;;;;;;;;;5054716;28;20044;-74
2023/05/22 03:40:23;;;;;;;38.78;31.85;;;;;;;;;;5054770;28;20676;-74
2023/05/22 03:42:49;;;;;;;34.80;30.75;;;;;;;;;;5054325;28;20040;-74
2023/05/22 03:45:15;;;;;;;37.78;31.52;;;;;;;;;;5056181;28;20054;-74
2023/05/22 03:47:41;;;;;;;41.60;32.42;;;;;;;;;;5054932;28;20086;-73
2023/05/22 03:50:09;;;;;;;37.15;32.20;;;;;;;;;;5054536;28;20071;-74
2023/05/22 03:52:35;;;;;;;36.00;31.33;;;;;;;;;;5053799;28;20056;-74
2023/05/22 03:55:01;;;;;;;39.25;31.13;;;;;;;;;;5036398;28;20863;-75
2023/05/22 03:57:27;;;;;;;37.33;31.58;;;;;;;;;;5052012;28;20049;-74
2023/05/22 03:59:54;;;;;;;36.13;30.45;;;;;;;;;;5057789;28;20041;-75
2023/05/22 04:02:20;;;;;;;37.00;30.40;;;;;;;;;;5048815;28;20488;-74
2023/05/22 04:04:47;;;;;;;35.72;30.33;;;;;;;;;;5041011;28;20546;-74
2023/05/22 04:07:13;;;;;;;36.42;29.50;;;;;;;;;;5052007;28;20048;-75
2023/05/22 04:09:40;;;;;;;39.72;29.77;;;;;;;;;;5046072;28;20408;-75
2023/05/22 04:12:06;;;;;;;35.75;29.58;;;;;;;;;;5056281;28;20080;-74
2023/05/22 04:14:32;;;;;;;35.55;29.23;;;;;;;;;;5056869;28;20048;-75
2023/05/22 04:16:59;;;;;;;32.88;29.35;;;;;;;;;;5061466;28;20047;-74
2023/05/22 04:19:26;;;;;;;34.90;29.08;;;;;;;;;;5044547;28;20076;-75
2023/05/22 04:21:53;;;;;;;33.65;29.27;;;;;;;;;;5063550;28;20052;-74
2023/05/22 04:24:21;;;;;;;31.60;28.20;;;;;;;;;;5061302;28;20054;-74
2023/05/22 04:26:48;;;;;;;34.35;30.63;;;;;;;;;;5044263;28;20052;-75
2023/05/22 04:29:15;;;;;;;36.22;29.88;;;;;;;;;;5063119;28;20064;-75
2023/05/22 04:31:41;;;;;;;34.03;30.15;;;;;;;;;;5060499;28;20407;-74
2023/05/22 04:34:11;;;;;;;34.38;30.67;;;;;;;;;;5063578;28;20051;-74
2023/05/22 04:36:37;;;;;;;36.60;30.85;;;;;;;;;;5060004;28;20108;-75
2023/05/22 04:39:03;;;;;;;34.78;31.08;;;;;;;;;;5063338;28;20578;-74
2023/05/22 04:41:31;;;;;;;36.42;31.25;;;;;;;;;;5058068;28;20044;-75
2023/05/22 04:43:57;;;;;;;38.13;30.73;;;;;;;;;;5059443;28;20160;-74
2023/05/22 04:46:23;;;;;;;38.47;31.67;;;;;;;;;;5043530;28;20052;-75
2023/05/22 04:48:49;;;;;;;38.30;30.85;;;;;;;;;;5061666;28;20051;-75
2023/05/22 04:51:15;;;;;;;41.95;32.60;;;;;;;;;;5064310;28;20078;-75
2023/05/22 04:53:41;;;;;;;36.05;31.52;;;;;;;;;;5060485;28;20139;-74
2023/05/22 04:56:07;;;;;;;40.35;33.45;;;;;;;;;;5063163;28;20577;-74
2023/05/22 04:58:33;;;;;;;39.05;32.35;;;;;;;;;;5062171;28;20048;-73
2023/05/22 05:01:02;;;;;;;39.92;31.75;;;;;;;;;;5046703;28;20044;-74
2023/05/22 05:03:28;;;;;;;35.70;31.42;;;;;;;;;;5045010;28;20057;-74
2023/05/22 05:05:55;;;;;;;36.85;32.83;;;;;;;;;;5043176;28;20600;-74
2023/05/22 05:08:21;;;;;;;42.58;32.58;;;;;;;;;;5042260;28;20052;-76
2023/05/22 05:10:47;;;;;;;41.25;33.85;;;;;;;;;;5061968;28;20403;-73
2023/05/22 05:13:13;;;;;;;42.03;33.55;;;;;;;;;;5055532;28;20039;-75
2023/05/22 05:15:39;;;;;;;37.05;31.05;;;;;;;;;;5041197;28;20037;-75
2023/05/22 05:18:05;;;;;;;39.55;31.77;;;;;;;;;;5060981;28;20138;-75
2023/05/22 05:20:31;;;;;;;39.05;32.20;;;;;;;;;;5053992;28;20127;-75
2023/05/22 05:22:57;;;;;;;40.17;32.30;;;;;;;;;;5039684;28;20040;-75
2023/05/22 05:25:24;;;;;;;39.55;33.05;;;;;;;;;;5060320;28;20045;-74
2023/05/22 05:27:50;;;;;;;41.90;33.08;;;;;;;;;;5060759;28;20041;-76
2023/05/22 05:30:17;;;;;;;40.65;31.75;;;;;;;;;;5055486;28;20135;-75
2023/05/22 05:32:43;;;;;;;41.22;32.28;;;;;;;;;;5052679;28;20060;-75
2023/05/22 05:35:09;;;;;;;44.10;32.30;;;;;;;;;;5042489;28;20048;-75
2023/05/22 05:37:35;;;;;;;37.45;31.20;;;;;;;;;;5053312;28;20036;-74
2023/05/22 05:40:03;;;;;;;41.42;32.20;;;;;;;;;;5043042;28;20066;-75
2023/05/22 05:42:29;;;;;;;39.47;31.23;;;;;;;;;;5054898;28;20514;-73
2023/05/22 05:44:55;;;;;;;43.55;31.58;;;;;;;;;;5033721;28;20041;-77
2023/05/22 05:47:22;;;;;;;38.20;30.27;;;;;;;;;;5057847;28;20399;-76
2023/05/22 05:49:48;;;;;;;39.30;29.00;;;;;;;;;;5058154;28;20454;-74
2023/05/22 05:52:14;;;;;;;32.97;28.60;;;;;;;;;;5056609;28;20046;-76
2023/05/22 05:54:45;;;;;;;39.03;29.88;;;;;;;;;;5038318;28;20044;-77
2023/05/22 05:57:11;;;;;;;38.90;29.00;;;;;;;;;;5056254;28;20048;-75
2023/05/22 05:59:37;;;;;;;35.88;28.80;;;;;;;;;;5039908;28;20051;-77
2023/05/22 06:02:03;;;;;;;35.97;28.27;;;;;;;;;;5052043;28;20037;-76
2023/05/22 06:04:29;;;;;;;36.63;27.30;;;;;;;;;;5059260;28;20048;-76
2023/05/22 06:06:55;;;;;;;32.75;27.38;;;;;;;;;;5054889;28;20048;-75
2023/05/22 06:09:21;;;;;;;31.45;27.98;;;;;;;;;;5044575;28;20076;-76
2023/05/22 06:11:47;;;;;;;31.02;26.00;;;;;;;;;;5062642;28;20064;-75
2023/05/22 06:14:13;;;;;;;30.95;26.55;;;;;;;;;;5060596;28;20080;-74
2023/05/22 06:16:39;;;;;;;31.95;25.88;;;;;;;;;;5060351;28;20047;-74
2023/05/22 06:19:05;;;;;;;31.00;25.17;;;;;;;;;;5061603;28;20055;-74
2023/05/22 06:21:31;;;;;;;30.08;24.63;;;;;;;;;;5042122;28;20413;-74
2023/05/22 06:23:57;;;;;;;30.67;25.08;;;;;;;;;;5061955;28;20075;-74
2023/05/22 06:26:24;;;;;;;31.50;24.08;;;;;;;;;;5043871;28;20488;-74
2023/05/22 06:28:50;;;;;;;32.42;24.08;;;;;;;;;;5058119;28;20060;-75
2023/05/22 06:31:17;;;;;;;27.75;23.38;;;;;;;;;;5059996;28;20080;-76
2023/05/22 06:33:43;;;;;;;29.55;22.38;;;;;;;;;;5057036;28;20503;-74
2023/05/22 06:36:10;;;;;;;30.67;22.63;;;;;;;;;;5043373;28;20506;-75
2023/05/22 06:38:39;;;;;;;35.35;22.83;;;;;;;;;;5062041;28;20051;-74
2023/05/22 06:41:06;;;;;;;29.75;22.63;;;;;;;;;;5059794;28;20050;-75
2023/05/22 06:43:32;;;;;;;29.30;20.83;;;;;;;;;;5062569;28;20044;-74
2023/05/22 06:45:58;;;;;;;27.13;21.33;;;;;;;;;;5060914;28;20029;-75
2023/05/22 06:48:25;;;;;;;26.17;19.98;;;;;;;;;;5059723;28;20041;-75
2023/05/22 06:50:51;;;;;;;24.10;20.23;;;;;;;;;;5042667;28;20067;-75
2023/05/22 06:53:17;;;;;;;25.30;20.10;;;;;;;;;;5050243;28;20135;-74
2023/05/22 06:55:43;;;;;;;25.52;19.27;;;;;;;;;;5059192;28;20495;-75
2023/05/22 06:58:09;;;;;;;24.88;19.15;;;;;;;;;;5051329;28;20041;-75
2023/05/22 07:00:35;;;;;;;23.00;18.83;;;;;;;;;;5059080;28;20064;-74
2023/05/22 07:03:01;;;;;;;25.38;19.10;;;;;;;;;;5055997;28;20105;-75
2023/05/22 07:05:27;;;;;;;22.33;18.52;;;;;;;;;;5061100;28;20048;-75
2023/05/22 07:07:53;;;;;;;25.88;18.50;;;;;;;;;;5058560;28;20075;-74
2023/05/22 07:10:19;;;;;;;24.63;17.77;;;;;;;;;;5060173;28;20411;-75
2023/05/22 07:12:45;;;;;;;22.55;17.65;;;;;;;;;;5038538;28;20049;-75
2023/05/22 07:15:13;;;;;;;26.08;17.73;;;;;;;;;;5060463;28;20643;-75
2023/05/22 07:17:40;;;;;;;19.60;17.33;;;;;;;;;;5061433;28;20574;-75
2023/05/22 07:20:07;;;;;;;23.67;16.30;;;;;;;;;;5041914;28;20509;-76
2023/05/22 07:22:33;;;;;;;20.50;16.00;;;;;;;;;;5065287;28;20051;-75
2023/05/22 07:24:59;;;;;;;20.33;16.88;;;;;;;;;;5060070;28;20037;-75
2023/05/22 07:27:25;;;;;;;23.45;16.50;;;;;;;;;;5060959;28;20080;-75
2023/05/22 07:29:52;;;;;;;21.67;16.73;;;;;;;;;;5043139;28;20076;-76
2023/05/22 07:32:17;;;;;;;23.15;16.80;;;;;;;;;;5059429;28;20040;-76
2023/05/22 07:34:44;;;;;;;23.25;17.00;;;;;;;;;;5064283;28;20044;-75
2023/05/22 07:37:11;;;;;;;24.67;16.60;;;;;;;;;;5058936;28;20045;-75
2023/05/22 07:39:37;;;;;;;26.23;16.27;;;;;;;;;;5062637;28;20416;-75
2023/05/22 07:42:03;;;;;;;25.55;14.73;;;;;;;;;;5051853;28;20036;-76
2023/05/22 07:44:30;;;;;;;22.33;14.35;;;;;;;;;;5060615;28;20044;-75
2023/05/22 07:46:56;;;;;;;23.90;14.98;;;;;;;;;;5038958;28;20067;-76
2023/05/22 07:49:23;;;;;;;25.70;14.00;;;;;;;;;;5066010;28;20040;-75
2023/05/22 07:51:49;;;;;;;25.77;13.50;;;;;;;;;;5020685;28;20048;-74
2023/05/22 07:54:17;;;;;;;22.20;12.77;;;;;;;;;;5036955;28;20102;-75
2023/05/22 07:56:44;;;;;;;23.25;12.55;;;;;;;;;;5060168;28;20049;-75
2023/05/22 07:59:10;;;;;;;22.33;12.45;;;;;;;;;;5037977;28;20024;-75
2023/05/22 08:01:37;;;;;;;24.20;12.30;;;;;;;;;;5054740;28;20133;-76
2023/05/22 08:04:04;;;;;;;25.88;12.40;;;;;;;;;;5060959;28;20056;-76
2023/05/22 08:06:30;;;;;;;23.77;11.77;;;;;;;;;;5058208;28;20181;-76
2023/05/22 08:08:56;;;;;;;30.95;12.27;;;;;;;;;;5048245;28;20075;-75
2023/05/22 08:11:22;;;;;;;28.08;11.70;;;;;;;;;;5040166;28;20047;-75
2023/05/22 08:13:48;;;;;;;28.52;12.10;;;;;;;;;;5036814;28;20049;-73
2023/05/22 08:16:14;;;;;;;26.63;12.20;;;;;;;;;;5061921;28;20408;-76
2023/05/22 08:18:40;;;;;;;27.38;11.65;;;;;;;;;;5043482;28;20032;-76
2023/05/22 08:21:06;;;;;;;23.70;12.75;;;;;;;;;;5054445;28;20048;-74
2023/05/22 08:23:35;;;;;;;25.60;11.80;;;;;;;;;;5062072;28;20449;-75
2023/05/22 08:26:00;;;;;;;;;;;;;;;;;;5062767;28;20070;-75
2023/05/22 08:28:26;;;;;;;32.85;11.75;;;;;;;;;;5044563;28;21045;-75
2023/05/22 08:30:54;;;;;;;29.20;11.50;;;;;;;;;;5056985;28;20571;-75
2023/05/22 08:33:19;;;;;;;28.60;11.38;;;;;;;;;;5066491;28;20095;-74
2023/05/22 08:35:45;;;;;;;28.08;11.57;;;;;;;;;;5054124;28;20571;-76
2023/05/22 08:38:11;;;;;;;34.63;12.00;;;;;;;;;;5054285;28;20075;-76
2023/05/22 08:40:39;;;;;;;28.75;11.43;;;;;;;;;;5062077;28;20051;-75
2023/05/22 08:43:05;;;;;;;36.78;13.15;;;;;;;;;;5055381;28;20102;-75
2023/05/22 08:45:35;;;;;;;27.05;12.30;;;;;;;;;;5060444;28;20681;-77
2023/05/22 08:48:06;;;;;;;30.80;12.60;;;;;;;;;;5055058;28;20080;-75
2023/05/22 08:50:35;;;;;;;24.55;12.25;;;;;;;;;;5055336;28;20043;-75
2023/05/22 08:53:02;;;;;;;31.52;12.98;;;;;;;;;;5039939;28;20044;-75
2023/05/22 08:55:28;;;;;;;31.05;12.98;;;;;;;;;;5053915;28;20053;-75
2023/05/22 08:57:55;;;;;;;27.50;11.98;;;;;;;;;;5041396;28;20044;-75
2023/05/22 09:00:21;;;;;;;31.55;13.50;;;;;;;;;;5052850;28;20041;-76
2023/05/22 09:02:48;;;;;;;28.65;12.57;;;;;;;;;;5056931;28;20050;-75
2023/05/22 09:05:16;;;;;;;25.48;13.35;;;;;;;;;;5057572;28;20123;-75
2023/05/22 09:07:42;;;;;;;27.45;12.20;;;;;;;;;;5040464;28;20497;-75
2023/05/22 09:10:08;;;;;;;30.45;12.55;;;;;;;;;;5058448;28;20419;-75
2023/05/22 09:12:34;;;;;;;31.92;13.13;;;;;;;;;;5059585;28;20141;-74
2023/05/22 09:15:10;;;;;;;30.65;13.10;;;;;;;;;;5057793;28;20078;-74
2023/05/22 09:17:40;;;;;;;26.15;13.50;;;;;;;;;;5053800;28;20667;-75
2023/05/22 09:20:06;;;;;;;32.00;13.35;;;;;;;;;;5055614;28;20052;-73
2023/05/22 09:22:39;;;;;;;32.55;12.95;;;;;;;;;;5034767;28;20535;-74
2023/05/22 09:25:08;;;;;;;35.35;13.85;;;;;;;;;;5055633;28;20130;-74
2023/05/22 09:27:34;;;;;;;35.17;14.10;;;;;;;;;;5034260;28;20045;-74
2023/05/22 09:30:00;;;;;;;34.10;13.00;;;;;;;;;;5058115;28;20051;-74
2023/05/22 09:32:30;;;;;;;29.48;13.25;;;;;;;;;;5049338;28;20049;-75
2023/05/22 09:35:02;;;;;;;31.90;14.20;;;;;;;;;;5038724;28;20054;-74
2023/05/22 09:37:32;;;;;;;33.13;14.68;;;;;;;;;;5054106;28;20094;-75
2023/05/22 09:39:58;;;;;;;37.20;13.52;;;;;;;;;;5041886;28;20059;-75
2023/05/22 09:42:24;;;;;;;31.52;13.88;;;;;;;;;;5038904;28;20056;-74
2023/05/22 09:44:51;;;;;;;31.65;14.07;;;;;;;;;;5043099;28;20135;-75
2023/05/22 09:47:17;;;;;;;29.70;14.00;;;;;;;;;;5050947;28;20048;-75
2023/05/22 09:49:43;;;;;;;28.30;14.43;;;;;;;;;;5053648;28;20518;-75
2023/05/22 09:52:11;;;;;;;34.22;14.02;;;;;;;;;;5051416;28;20883;-75
2023/05/22 09:54:43;;;;;;;26.67;13.60;;;;;;;;;;5057130;28;20037;-74
2023/05/22 09:57:12;;;;;;;33.60;13.68;;;;;;;;;;5048823;28;20131;-75
2023/05/22 09:59:39;;;;;;;24.35;12.57;;;;;;;;;;5056844;28;20097;-75
2023/05/22 10:02:06;;;;;;;34.00;13.25;;;;;;;;;;5056397;28;20041;-74
2023/05/22 10:04:33;;;;;;;27.33;12.25;;;;;;;;;;5057176;28;20465;-76
2023/05/22 10:07:01;;;;;;;31.90;14.15;;;;;;;;;;5060125;28;20133;-75
2023/05/22 10:09:32;;;;;;;26.15;13.48;;;;;;;;;;5053227;28;20041;-76
2023/05/22 10:12:02;;;;;;;26.88;12.60;;;;;;;;;;5057972;28;20129;-75
2023/05/22 10:14:29;;;;;;;28.55;13.75;;;;;;;;;;5056245;28;20087;-76
2023/05/22 10:16:56;;;;;;;25.05;12.48;;;;;;;;;;5048622;28;20049;-75
2023/05/22 10:19:25;;;;;;;25.65;13.02;;;;;;;;;;5060358;28;20044;-75
2023/05/22 10:21:52;;;;;;;22.30;11.70;;;;;;;;;;5053403;28;20055;-75
2023/05/22 10:24:18;;;;;;;26.60;12.57;;;;;;;;;;5058982;28;20147;-75
2023/05/22 10:26:44;;;;;;;23.65;11.82;;;;;;;;;;5057818;28;20135;-75
2023/05/22 10:29:12;;;;;;;22.95;11.63;;;;;;;;;;5058949;28;20674;-75
2023/05/22 10:31:43;;;;;;;23.45;12.90;;;;;;;;;;5056796;28;20135;-74
2023/05/22 10:34:12;;;;;;;23.38;12.98;;;;;;;;;;5063820;28;20063;-75
2023/05/22 10:37:01;;;;;;;26.10;12.63;;;;;;;;;;5057918;28;20127;-75
2023/05/22 10:39:30;;;;;;;21.33;12.00;;;;;;;;;;5051994;28;20058;-75
2023/05/22 10:41:56;;;;;;;21.77;12.30;;;;;;;;;;5059915;28;20434;-75
2023/05/22 10:44:22;;;;;;;24.08;11.88;;;;;;;;;;5058878;28;20037;-74
2023/05/22 10:46:52;;;;;;;27.30;12.68;;;;;;;;;;5053319;28;20040;-75
2023/05/22 10:49:22;;;;;;;18.65;10.88;;;;;;;;;;5057004;28;20040;-74
2023/05/22 10:51:48;;;;;;;18.13;11.93;;;;;;;;;;5055171;28;20099;-74
2023/05/22 10:54:14;;;;;;;18.10;12.65;;;;;;;;;;5051446;28;20076;-75
2023/05/22 10:56:41;;;;;;;20.55;12.07;;;;;;;;;;5062106;28;20040;-75
2023/05/22 10:59:07;;;;;;;17.10;10.73;;;;;;;;;;5048005;28;20059;-75
2023/05/22 11:01:36;;;;;;;18.00;12.05;;;;;;;;;;5037334;28;20044;-75
2023/05/22 11:04:10;;;;;;;18.48;11.60;;;;;;;;;;5031950;28;20095;-74
2023/05/22 11:06:45;;;;;;;21.65;11.63;;;;;;;;;;5050115;28;20504;-74
2023/05/22 11:09:28;;;;;;;17.52;10.93;;;;;;;;;;5035053;28;20118;-74
2023/05/22 11:12:15;;;;;;;16.80;10.75;;;;;;;;;;5055346;28;20056;-74
2023/05/22 11:14:41;;;;;;;17.73;10.70;;;;;;;;;;5054049;28;20105;-75
2023/05/22 11:17:07;;;;;;;14.60;10.80;;;;;;;;;;5052413;28;20652;-75
2023/05/22 11:19:33;;;;;;;18.25;11.13;;;;;;;;;;5053292;28;20372;-74
2023/05/22 11:22:01;;;;;;;19.65;11.70;;;;;;;;;;5037536;28;20543;-74
2023/05/22 11:24:32;;;;;;;19.05;11.98;;;;;;;;;;5055377;28;20044;-74
2023/05/22 11:27:04;;;;;;;19.83;12.30;;;;;;;;;;5052616;28;20071;-76
2023/05/22 11:29:30;;;;;;;19.60;11.52;;;;;;;;;;5056888;28;20076;-75
2023/05/22 11:31:57;;;;;;;19.25;12.25;;;;;;;;;;5053288;28;20178;-76
2023/05/22 11:34:24;;;;;;;15.75;13.00;;;;;;;;;;5059930;28;20052;-75
2023/05/22 11:36:51;;;;;;;18.00;13.10;;;;;;;;;;5030986;28;20056;-75
2023/05/22 11:39:17;;;;;;;17.55;13.93;;;;;;;;;;5053502;28;20060;-75
2023/05/22 11:41:43;;;;;;;20.00;13.55;;;;;;;;;;5049959;28;20049;-75
2023/05/22 11:44:09;;;;;;;25.83;15.70;;;;;;;;;;5053123;28;20469;-75
2023/05/22 11:46:35;;;;;;;22.95;15.63;;;;;;;;;;5059581;28;20115;-75
2023/05/22 11:49:01;;;;;;;19.15;15.52;;;;;;;;;;5053559;28;20165;-75
2023/05/22 11:51:28;;;;;;;22.70;15.90;;;;;;;;;;5025204;28;20146;-75
2023/05/22 11:53:54;;;;;;;20.83;17.17;;;;;;;;;;5039482;28;20452;-74
2023/05/22 11:56:21;;;;;;;24.70;17.13;;;;;;;;;;5055718;28;20159;-75
2023/05/22 11:58:48;;;;;;;19.23;16.08;;;;;;;;;;5057101;28;20041;-74
2023/05/22 12:01:14;;;;;;;21.38;16.63;;;;;;;;;;5056527;28;20059;-75
2023/05/22 12:03:40;;;;;;;22.23;17.08;;;;;;;;;;5056796;28;20373;-74
2023/05/22 12:06:07;;;;;;;19.65;16.55;;;;;;;;;;5053198;28;20230;-75
2023/05/22 12:08:33;;;;;;;18.95;15.70;;;;;;;;;;5042806;28;20053;-75
2023/05/22 12:10:59;;;;;;;19.13;15.75;;;;;;;;;;5052343;28;20569;-74
2023/05/22 12:13:29;;;;;;;23.00;17.55;;;;;;;;;;5058507;28;20049;-75
2023/05/22 12:15:59;;;;;;;21.08;17.67;;;;;;;;;;5046217;28;20045;-75
2023/05/22 12:18:25;;;;;;;18.73;16.13;;;;;;;;;;5051026;28;20229;-74
2023/05/22 12:20:53;;;;;;;21.73;16.88;;;;;;;;;;5039704;28;20045;-74
2023/05/22 12:23:19;;;;;;;;;;;;;;;;;;5053513;28;20146;-75
2023/05/22 12:25:45;;;;;;;23.50;17.33;;;;;;;;;;5053024;28;19929;-75
2023/05/22 12:28:11;;;;;;;20.10;16.80;;;;;;;;;;5037126;28;20055;-75
2023/05/22 12:30:40;;;;;;;21.30;17.50;;;;;;;;;;5063000;28;20044;-76
2023/05/22 12:33:16;;;;;;;24.88;15.95;;;;;;;;;;5060128;28;20048;-74
2023/05/22 12:35:42;;;;;;;22.38;17.50;;;;;;;;;;5060552;28;20163;-74
2023/05/22 12:38:08;;;;;;;29.25;17.70;;;;;;;;;;5057730;28;20120;-75
2023/05/22 12:40:34;;;;;;;19.65;16.83;;;;;;;;;;5042570;28;20040;-74
2023/05/22 12:43:00;;;;;;;20.48;15.55;;;;;;;;;;5061499;28;20520;-75
2023/05/22 12:45:26;;;;;;;19.77;15.98;;;;;;;;;;5057278;28;20052;-75
2023/05/22 12:47:52;;;;;;;20.95;16.13;;;;;;;;;;5040607;28;20049;-74
2023/05/22 12:50:18;;;;;;;18.15;14.80;;;;;;;;;;5058987;28;20049;-75
2023/05/22 12:52:44;;;;;;;22.38;16.08;;;;;;;;;;5043549;28;20110;-74
2023/05/22 12:55:10;;;;;;;18.08;15.77;;;;;;;;;;5062388;28;20037;-74
2023/05/22 12:57:36;;;;;;;18.63;15.40;;;;;;;;;;5043692;28;20055;-75
2023/05/22 13:00:04;;;;;;;19.15;14.32;;;;;;;;;;5042155;28;20050;-75
2023/05/22 13:02:30;;;;;;;17.52;15.23;;;;;;;;;;5055198;28;20063;-75
2023/05/22 13:04:56;;;;;;;21.85;17.42;;;;;;;;;;5035202;28;20745;-74
2023/05/22 13:07:22;;;;;;;20.08;16.02;;;;;;;;;;5042004;28;20094;-75
2023/05/22 13:09:48;;;;;;;18.27;15.48;;;;;;;;;;5061084;28;20052;-75
2023/05/22 13:12:14;;;;;;;22.98;17.00;;;;;;;;;;5059814;28;20094;-75
2023/05/22 13:14:40;;;;;;;19.23;17.23;;;;;;;;;;5063359;28;20924;-75
2023/05/22 13:17:06;;;;;;;22.42;16.55;;;;;;;;;;5057704;28;20076;-75
2023/05/22 13:19:33;;;;;;;22.20;17.65;;;;;;;;;;5043415;28;20178;-75
2023/05/22 13:21:59;;;;;;;23.30;18.00;;;;;;;;;;5059812;28;20048;-75
2023/05/22 13:24:25;;;;;;;23.33;19.48;;;;;;;;;;5058963;28;20060;-75
2023/05/22 13:26:51;;;;;;;21.80;18.08;;;;;;;;;;5060674;28;20051;-74
2023/05/22 13:29:17;;;;;;;22.70;18.17;;;;;;;;;;5061607;28;20376;-75
2023/05/22 13:31:43;;;;;;;20.08;17.35;;;;;;;;;;5042883;28;20049;-75
2023/05/22 13:34:09;;;;;;;22.65;17.08;;;;;;;;;;5062082;28;20055;-75
2023/05/22 13:36:35;;;;;;;19.42;16.23;;;;;;;;;;5056883;28;20044;-76
2023/05/22 13:39:01;;;;;;;18.73;15.93;;;;;;;;;;5058893;28;20044;-75
2023/05/22 13:41:27;;;;;;;22.02;15.98;;;;;;;;;;5059045;28;20095;-76
2023/05/22 13:43:53;;;;;;;23.65;15.63;;;;;;;;;;5059923;28;20041;-76
2023/05/22 13:46:20;;;;;;;24.85;15.95;;;;;;;;;;5061931;28;20041;-76
2023/05/22 13:48:46;;;;;;;28.23;17.05;;;;;;;;;;5059152;28;20048;-75
2023/05/22 13:51:12;;;;;;;22.85;15.77;;;;;;;;;;5033735;28;20060;-75
2023/05/22 13:53:38;;;;;;;33.50;16.67;;;;;;;;;;5056428;28;20106;-77
2023/05/22 13:56:04;;;;;;;26.45;16.40;;;;;;;;;;5058512;28;20036;-76
2023/05/22 13:58:30;;;;;;;26.15;16.00;;;;;;;;;;5059373;28;20071;-76
2023/05/22 14:00:56;;;;;;;30.95;17.08;;;;;;;;;;5059403;28;20067;-73
2023/05/22 14:03:22;;;;;;;30.40;16.75;;;;;;;;;;5033764;28;20043;-76
2023/05/22 14:05:48;;;;;;;30.33;16.63;;;;;;;;;;5045842;28;20045;-75
2023/05/22 14:08:14;;;;;;;25.65;16.63;;;;;;;;;;5036281;28;20500;-76
2023/05/22 14:10:40;;;;;;;26.98;18.15;;;;;;;;;;5060156;28;20068;-75
2023/05/22 14:13:07;;;;;;;29.42;18.00;;;;;;;;;;5061069;28;20076;-74
2023/05/22 14:15:33;;;;;;;26.05;17.75;;;;;;;;;;5051503;28;20058;-75
2023/05/22 14:18:00;;;;;;;29.10;18.55;;;;;;;;;;5062094;28;20097;-74